Terminal Aerodrome Forecast
Issued by NWS Sterling, VA

Current Version | Previous Version | Graphics & Text | Print | Product List | Glossary On
Versions: 1 2 3 4 5 6 7 8 9 10 11 12 13 14 15 16 17 18 19 20 21 22 23 24
068
FTUS41 KLWX 100520
TAFIAD
TAF
KIAD 100520Z 1006/1112 31011KT P6SM BKN050
     FM101400 29012G20KT P6SM BKN070
     FM102000 28013G22KT P6SM BKN040
     FM102300 29011KT P6SM BKN060
     FM110500 29014G22KT P6SM SCT250=

USA.gov is the U.S. government's official web portal to all federal, state and local government web resources and services.